Lakewood Club, Michigan
Current Conditions -  °F | °C
As of 8:35 AM on Saturday 25 Oct 2014 (Local Time) from KFFX Reporting Station
Haze Haze  
Wind Chill: 54°   Ceiling: 900
Heat Index: 54°   Visibility: 4mi
Dew Point: 52°   Wind: 6mph
Humidity: 95%   Direction: 260°W
Pressure: 29.83"   Gusts: NA
Location:  43.3636°N, 86.1512°W
Report Text: KFFX 251235Z AUTO 26005KT 4SM BR BKN009 OVC013 12/11 A2983 RMK AO2 T01200113
Loading
Personal Weather Stations






























Interactive Weather Map
Tropical Storm Tracking
New forecast layout! Learn more

10-Day Weather Forecast

Advertisements
Track Severe Weather on mobile